sensor_id;sensor_type;location;lat;lon;timestamp;P1;durP1;ratioP1;P2;durP2;ratioP2
33926;SDS011;20485;50.992;5.550;2023-07-02T00:01:36;16.98;;;6.90;;
33926;SDS011;20485;50.992;5.550;2023-07-02T00:04:02;20.67;;;8.43;;
33926;SDS011;20485;50.992;5.550;2023-07-02T00:06:28;24.10;;;7.75;;
33926;SDS011;20485;50.992;5.550;2023-07-02T00:08:53;16.60;;;7.68;;
33926;SDS011;20485;50.992;5.550;2023-07-02T00:11:19;26.83;;;7.50;;
33926;SDS011;20485;50.992;5.550;2023-07-02T00:13:44;27.48;;;7.82;;
33926;SDS011;20485;50.992;5.550;2023-07-02T00:16:10;30.85;;;8.07;;
33926;SDS011;20485;50.992;5.550;2023-07-02T00:18:36;28.52;;;7.93;;
33926;SDS011;20485;50.992;5.550;2023-07-02T00:21:01;27.63;;;8.57;;
33926;SDS011;20485;50.992;5.550;2023-07-02T00:23:28;21.92;;;7.88;;
33926;SDS011;20485;50.992;5.550;2023-07-02T00:25:54;28.65;;;9.38;;
33926;SDS011;20485;50.992;5.550;2023-07-02T00:28:21;21.85;;;8.82;;
33926;SDS011;20485;50.992;5.550;2023-07-02T00:30:46;21.27;;;9.18;;
33926;SDS011;20485;50.992;5.550;2023-07-02T00:33:12;21.63;;;8.70;;
33926;SDS011;20485;50.992;5.550;2023-07-02T00:35:38;31.52;;;9.57;;
33926;SDS011;20485;50.992;5.550;2023-07-02T00:38:03;27.50;;;8.90;;
33926;SDS011;20485;50.992;5.550;2023-07-02T00:40:29;28.65;;;9.90;;
33926;SDS011;20485;50.992;5.550;2023-07-02T00:42:58;27.58;;;9.50;;
33926;SDS011;20485;50.992;5.550;2023-07-02T00:45:24;27.05;;;9.27;;
33926;SDS011;20485;50.992;5.550;2023-07-02T00:47:53;29.38;;;9.63;;
33926;SDS011;20485;50.992;5.550;2023-07-02T00:50:20;21.55;;;9.48;;
33926;SDS011;20485;50.992;5.550;2023-07-02T00:52:47;25.75;;;9.88;;
33926;SDS011;20485;50.992;5.550;2023-07-02T00:55:13;28.25;;;10.73;;
33926;SDS011;20485;50.992;5.550;2023-07-02T00:57:39;24.52;;;9.75;;
33926;SDS011;20485;50.992;5.550;2023-07-02T01:00:06;26.63;;;10.55;;
33926;SDS011;20485;50.992;5.550;2023-07-02T01:02:32;27.58;;;10.38;;
33926;SDS011;20485;50.992;5.550;2023-07-02T01:04:58;25.60;;;9.73;;
33926;SDS011;20485;50.992;5.550;2023-07-02T01:07:24;28.13;;;10.95;;
33926;SDS011;20485;50.992;5.550;2023-07-02T01:09:50;31.05;;;11.80;;
33926;SDS011;20485;50.992;5.550;2023-07-02T01:12:16;36.33;;;11.07;;
33926;SDS011;20485;50.992;5.550;2023-07-02T01:14:50;33.25;;;11.18;;
33926;SDS011;20485;50.992;5.550;2023-07-02T01:17:18;30.75;;;12.40;;
33926;SDS011;20485;50.992;5.550;2023-07-02T01:22:24;27.88;;;11.65;;
33926;SDS011;20485;50.992;5.550;2023-07-02T01:24:52;27.10;;;11.50;;
33926;SDS011;20485;50.992;5.550;2023-07-02T01:27:18;36.53;;;12.63;;
33926;SDS011;20485;50.992;5.550;2023-07-02T01:29:45;37.63;;;13.50;;
33926;SDS011;20485;50.992;5.550;2023-07-02T01:32:12;33.95;;;12.68;;
33926;SDS011;20485;50.992;5.550;2023-07-02T01:34:38;27.48;;;12.60;;
33926;SDS011;20485;50.992;5.550;2023-07-02T01:37:04;36.15;;;13.90;;
33926;SDS011;20485;50.992;5.550;2023-07-02T01:39:30;35.80;;;13.23;;
33926;SDS011;20485;50.992;5.550;2023-07-02T01:42:12;35.00;;;13.40;;
33926;SDS011;20485;50.992;5.550;2023-07-02T01:44:43;42.13;;;14.77;;
33926;SDS011;20485;50.992;5.550;2023-07-02T01:47:09;31.60;;;13.68;;
33926;SDS011;20485;50.992;5.550;2023-07-02T01:49:35;29.63;;;13.32;;
33926;SDS011;20485;50.992;5.550;2023-07-02T01:52:02;31.33;;;13.40;;
33926;SDS011;20485;50.992;5.550;2023-07-02T01:54:29;33.53;;;13.27;;
33926;SDS011;20485;50.992;5.550;2023-07-02T01:56:56;38.08;;;13.57;;
33926;SDS011;20485;50.992;5.550;2023-07-02T01:59:22;41.47;;;14.60;;
33926;SDS011;20485;50.992;5.550;2023-07-02T02:01:48;43.30;;;15.32;;
33926;SDS011;20485;50.992;5.550;2023-07-02T02:04:14;36.67;;;15.13;;
33926;SDS011;20485;50.992;5.550;2023-07-02T02:06:39;38.30;;;15.30;;
33926;SDS011;20485;50.992;5.550;2023-07-02T02:09:05;36.70;;;14.27;;
33926;SDS011;20485;50.992;5.550;2023-07-02T02:11:32;37.40;;;15.32;;
33926;SDS011;20485;50.992;5.550;2023-07-02T02:13:59;40.60;;;15.38;;
33926;SDS011;20485;50.992;5.550;2023-07-02T02:16:28;36.53;;;15.18;;
33926;SDS011;20485;50.992;5.550;2023-07-02T02:18:54;36.00;;;15.68;;
33926;SDS011;20485;50.992;5.550;2023-07-02T02:21:20;39.20;;;14.60;;
33926;SDS011;20485;50.992;5.550;2023-07-02T02:23:47;37.88;;;15.73;;
33926;SDS011;20485;50.992;5.550;2023-07-02T02:26:13;43.92;;;16.75;;
33926;SDS011;20485;50.992;5.550;2023-07-02T02:28:39;36.05;;;17.08;;
33926;SDS011;20485;50.992;5.550;2023-07-02T02:31:06;41.00;;;15.73;;
33926;SDS011;20485;50.992;5.550;2023-07-02T02:33:32;41.75;;;16.83;;
33926;SDS011;20485;50.992;5.550;2023-07-02T02:35:58;35.90;;;15.30;;
33926;SDS011;20485;50.992;5.550;2023-07-02T02:38:23;39.50;;;16.60;;
33926;SDS011;20485;50.992;5.550;2023-07-02T02:40:49;41.58;;;16.27;;
33926;SDS011;20485;50.992;5.550;2023-07-02T02:43:15;38.58;;;15.75;;
33926;SDS011;20485;50.992;5.550;2023-07-02T02:45:42;35.20;;;15.60;;
33926;SDS011;20485;50.992;5.550;2023-07-02T02:48:08;44.17;;;18.05;;
33926;SDS011;20485;50.992;5.550;2023-07-02T02:50:33;36.97;;;16.17;;
33926;SDS011;20485;50.992;5.550;2023-07-02T02:52:59;35.85;;;15.95;;
33926;SDS011;20485;50.992;5.550;2023-07-02T02:55:24;45.28;;;16.15;;
33926;SDS011;20485;50.992;5.550;2023-07-02T02:57:51;39.28;;;16.55;;
33926;SDS011;20485;50.992;5.550;2023-07-02T03:00:17;39.47;;;17.05;;
33926;SDS011;20485;50.992;5.550;2023-07-02T03:02:42;45.42;;;17.45;;
33926;SDS011;20485;50.992;5.550;2023-07-02T03:05:08;46.63;;;17.23;;
33926;SDS011;20485;50.992;5.550;2023-07-02T03:07:34;44.60;;;18.13;;
33926;SDS011;20485;50.992;5.550;2023-07-02T03:10:00;37.95;;;16.38;;
33926;SDS011;20485;50.992;5.550;2023-07-02T03:12:26;43.05;;;18.20;;
33926;SDS011;20485;50.992;5.550;2023-07-02T03:14:52;47.42;;;17.63;;
33926;SDS011;20485;50.992;5.550;2023-07-02T03:17:22;45.63;;;17.55;;
33926;SDS011;20485;50.992;5.550;2023-07-02T03:19:48;38.80;;;17.10;;
33926;SDS011;20485;50.992;5.550;2023-07-02T03:22:14;39.97;;;17.33;;
33926;SDS011;20485;50.992;5.550;2023-07-02T03:24:39;46.88;;;18.08;;
33926;SDS011;20485;50.992;5.550;2023-07-02T03:27:05;42.08;;;16.90;;
33926;SDS011;20485;50.992;5.550;2023-07-02T03:29:31;49.45;;;17.90;;
33926;SDS011;20485;50.992;5.550;2023-07-02T03:31:58;43.30;;;17.30;;
33926;SDS011;20485;50.992;5.550;2023-07-02T03:34:24;42.03;;;18.50;;
33926;SDS011;20485;50.992;5.550;2023-07-02T03:36:50;55.78;;;19.00;;
33926;SDS011;20485;50.992;5.550;2023-07-02T03:39:15;45.95;;;19.33;;
33926;SDS011;20485;50.992;5.550;2023-07-02T03:41:42;36.70;;;17.15;;
33926;SDS011;20485;50.992;5.550;2023-07-02T03:44:08;49.22;;;18.90;;
33926;SDS011;20485;50.992;5.550;2023-07-02T03:46:34;49.50;;;21.10;;
33926;SDS011;20485;50.992;5.550;2023-07-02T03:49:00;39.92;;;18.13;;
33926;SDS011;20485;50.992;5.550;2023-07-02T03:51:26;38.55;;;17.65;;
33926;SDS011;20485;50.992;5.550;2023-07-02T03:53:51;43.95;;;18.30;;
33926;SDS011;20485;50.992;5.550;2023-07-02T03:56:17;36.30;;;18.23;;
33926;SDS011;20485;50.992;5.550;2023-07-02T03:58:42;45.80;;;19.45;;
33926;SDS011;20485;50.992;5.550;2023-07-02T04:01:08;47.85;;;20.58;;
33926;SDS011;20485;50.992;5.550;2023-07-02T04:03:34;48.28;;;20.65;;
33926;SDS011;20485;50.992;5.550;2023-07-02T04:05:59;51.13;;;19.73;;
33926;SDS011;20485;50.992;5.550;2023-07-02T04:08:25;46.05;;;18.98;;
33926;SDS011;20485;50.992;5.550;2023-07-02T04:10:53;46.88;;;18.98;;
33926;SDS011;20485;50.992;5.550;2023-07-02T04:13:19;46.20;;;18.42;;
33926;SDS011;20485;50.992;5.550;2023-07-02T04:15:45;46.40;;;20.13;;
33926;SDS011;20485;50.992;5.550;2023-07-02T04:18:10;48.72;;;19.33;;
33926;SDS011;20485;50.992;5.550;2023-07-02T04:20:36;54.15;;;20.65;;
33926;SDS011;20485;50.992;5.550;2023-07-02T04:23:04;48.08;;;19.75;;
33926;SDS011;20485;50.992;5.550;2023-07-02T04:25:30;50.65;;;19.23;;
33926;SDS011;20485;50.992;5.550;2023-07-02T04:27:55;50.28;;;20.60;;
33926;SDS011;20485;50.992;5.550;2023-07-02T04:30:23;47.78;;;20.55;;
33926;SDS011;20485;50.992;5.550;2023-07-02T04:32:49;51.47;;;20.58;;
33926;SDS011;20485;50.992;5.550;2023-07-02T04:35:16;47.22;;;19.95;;
33926;SDS011;20485;50.992;5.550;2023-07-02T04:37:41;51.13;;;21.02;;
33926;SDS011;20485;50.992;5.550;2023-07-02T04:40:07;54.78;;;20.00;;
33926;SDS011;20485;50.992;5.550;2023-07-02T04:42:39;54.63;;;21.45;;
33926;SDS011;20485;50.992;5.550;2023-07-02T04:45:07;61.38;;;22.45;;
33926;SDS011;20485;50.992;5.550;2023-07-02T04:47:33;53.15;;;21.65;;
33926;SDS011;20485;50.992;5.550;2023-07-02T04:50:00;50.85;;;20.17;;
33926;SDS011;20485;50.992;5.550;2023-07-02T04:52:26;67.18;;;22.55;;
33926;SDS011;20485;50.992;5.550;2023-07-02T04:54:52;61.60;;;22.70;;
33926;SDS011;20485;50.992;5.550;2023-07-02T04:57:18;56.03;;;21.25;;
33926;SDS011;20485;50.992;5.550;2023-07-02T04:59:44;56.75;;;22.58;;
33926;SDS011;20485;50.992;5.550;2023-07-02T05:02:10;50.40;;;21.67;;
33926;SDS011;20485;50.992;5.550;2023-07-02T05:04:36;56.60;;;24.10;;
33926;SDS011;20485;50.992;5.550;2023-07-02T05:07:04;48.20;;;20.13;;
33926;SDS011;20485;50.992;5.550;2023-07-02T05:09:30;58.35;;;21.50;;
33926;SDS011;20485;50.992;5.550;2023-07-02T05:11:56;47.58;;;20.67;;
33926;SDS011;20485;50.992;5.550;2023-07-02T05:14:22;57.05;;;21.77;;
33926;SDS011;20485;50.992;5.550;2023-07-02T05:16:48;58.90;;;22.98;;
33926;SDS011;20485;50.992;5.550;2023-07-02T05:19:14;55.10;;;21.67;;
33926;SDS011;20485;50.992;5.550;2023-07-02T05:21:40;53.85;;;21.80;;
33926;SDS011;20485;50.992;5.550;2023-07-02T05:24:07;58.97;;;22.85;;
33926;SDS011;20485;50.992;5.550;2023-07-02T05:26:33;57.05;;;23.30;;
33926;SDS011;20485;50.992;5.550;2023-07-02T05:28:59;55.67;;;22.50;;
33926;SDS011;20485;50.992;5.550;2023-07-02T05:31:25;54.00;;;23.08;;
33926;SDS011;20485;50.992;5.550;2023-07-02T05:33:50;52.88;;;21.70;;
33926;SDS011;20485;50.992;5.550;2023-07-02T05:36:16;56.75;;;21.52;;
33926;SDS011;20485;50.992;5.550;2023-07-02T05:38:42;65.95;;;25.05;;
33926;SDS011;20485;50.992;5.550;2023-07-02T05:41:08;64.50;;;23.65;;
33926;SDS011;20485;50.992;5.550;2023-07-02T05:43:33;64.35;;;22.98;;
33926;SDS011;20485;50.992;5.550;2023-07-02T05:45:59;60.70;;;23.02;;
33926;SDS011;20485;50.992;5.550;2023-07-02T05:48:25;59.42;;;23.95;;
33926;SDS011;20485;50.992;5.550;2023-07-02T05:50:51;54.75;;;23.60;;
33926;SDS011;20485;50.992;5.550;2023-07-02T05:53:17;56.03;;;22.98;;
33926;SDS011;20485;50.992;5.550;2023-07-02T05:55:43;70.45;;;24.17;;
33926;SDS011;20485;50.992;5.550;2023-07-02T05:58:09;51.53;;;22.65;;
33926;SDS011;20485;50.992;5.550;2023-07-02T06:00:35;64.65;;;25.20;;
33926;SDS011;20485;50.992;5.550;2023-07-02T06:03:00;55.33;;;23.63;;
33926;SDS011;20485;50.992;5.550;2023-07-02T06:05:26;57.78;;;24.38;;
33926;SDS011;20485;50.992;5.550;2023-07-02T06:07:52;62.60;;;24.23;;
33926;SDS011;20485;50.992;5.550;2023-07-02T06:10:17;67.18;;;25.20;;
33926;SDS011;20485;50.992;5.550;2023-07-02T06:12:43;72.20;;;24.38;;
33926;SDS011;20485;50.992;5.550;2023-07-02T06:15:09;60.85;;;25.00;;
33926;SDS011;20485;50.992;5.550;2023-07-02T06:17:35;65.63;;;24.63;;
33926;SDS011;20485;50.992;5.550;2023-07-02T06:20:04;63.17;;;24.05;;
33926;SDS011;20485;50.992;5.550;2023-07-02T06:22:31;64.30;;;24.30;;
33926;SDS011;20485;50.992;5.550;2023-07-02T06:24:57;60.53;;;24.33;;
33926;SDS011;20485;50.992;5.550;2023-07-02T06:27:22;69.40;;;24.92;;
33926;SDS011;20485;50.992;5.550;2023-07-02T06:29:48;59.17;;;22.98;;
33926;SDS011;20485;50.992;5.550;2023-07-02T06:32:15;63.72;;;23.15;;
33926;SDS011;20485;50.992;5.550;2023-07-02T06:34:41;63.33;;;24.77;;
33926;SDS011;20485;50.992;5.550;2023-07-02T06:37:06;67.32;;;24.15;;
33926;SDS011;20485;50.992;5.550;2023-07-02T06:39:32;63.28;;;25.00;;
33926;SDS011;20485;50.992;5.550;2023-07-02T06:41:58;65.85;;;24.00;;
33926;SDS011;20485;50.992;5.550;2023-07-02T06:44:23;60.47;;;24.10;;
33926;SDS011;20485;50.992;5.550;2023-07-02T06:46:49;60.83;;;23.90;;
33926;SDS011;20485;50.992;5.550;2023-07-02T06:49:15;66.35;;;24.67;;
33926;SDS011;20485;50.992;5.550;2023-07-02T06:51:40;67.10;;;24.75;;
33926;SDS011;20485;50.992;5.550;2023-07-02T06:54:06;64.88;;;26.23;;
33926;SDS011;20485;50.992;5.550;2023-07-02T06:56:32;64.55;;;24.70;;
33926;SDS011;20485;50.992;5.550;2023-07-02T06:58:59;70.10;;;25.67;;
33926;SDS011;20485;50.992;5.550;2023-07-02T07:01:25;58.58;;;25.30;;
33926;SDS011;20485;50.992;5.550;2023-07-02T07:03:51;54.45;;;23.85;;
33926;SDS011;20485;50.992;5.550;2023-07-02T07:06:17;69.68;;;26.13;;
33926;SDS011;20485;50.992;5.550;2023-07-02T07:08:42;59.72;;;24.77;;
33926;SDS011;20485;50.992;5.550;2023-07-02T07:11:08;60.67;;;25.08;;
33926;SDS011;20485;50.992;5.550;2023-07-02T07:13:33;63.17;;;25.77;;
33926;SDS011;20485;50.992;5.550;2023-07-02T07:15:59;57.80;;;23.98;;
33926;SDS011;20485;50.992;5.550;2023-07-02T07:18:25;61.50;;;25.08;;
33926;SDS011;20485;50.992;5.550;2023-07-02T07:20:50;55.75;;;24.98;;
33926;SDS011;20485;50.992;5.550;2023-07-02T07:23:17;65.90;;;26.13;;
33926;SDS011;20485;50.992;5.550;2023-07-02T07:25:43;67.47;;;25.88;;
33926;SDS011;20485;50.992;5.550;2023-07-02T07:28:09;64.15;;;26.33;;
33926;SDS011;20485;50.992;5.550;2023-07-02T07:30:40;64.53;;;24.80;;
33926;SDS011;20485;50.992;5.550;2023-07-02T07:33:09;64.15;;;23.77;;
33926;SDS011;20485;50.992;5.550;2023-07-02T07:35:35;59.30;;;24.65;;
33926;SDS011;20485;50.992;5.550;2023-07-02T07:38:00;56.95;;;24.38;;
33926;SDS011;20485;50.992;5.550;2023-07-02T07:40:26;58.83;;;24.35;;
33926;SDS011;20485;50.992;5.550;2023-07-02T07:42:52;64.65;;;23.58;;
33926;SDS011;20485;50.992;5.550;2023-07-02T07:45:18;61.78;;;23.85;;
33926;SDS011;20485;50.992;5.550;2023-07-02T07:47:43;55.53;;;23.08;;
33926;SDS011;20485;50.992;5.550;2023-07-02T07:50:09;60.75;;;24.00;;
33926;SDS011;20485;50.992;5.550;2023-07-02T07:52:36;60.22;;;23.92;;
33926;SDS011;20485;50.992;5.550;2023-07-02T07:55:02;56.25;;;23.52;;
33926;SDS011;20485;50.992;5.550;2023-07-02T07:57:28;55.22;;;23.60;;
33926;SDS011;20485;50.992;5.550;2023-07-02T07:59:53;59.67;;;22.77;;
33926;SDS011;20485;50.992;5.550;2023-07-02T08:02:19;53.25;;;23.67;;
33926;SDS011;20485;50.992;5.550;2023-07-02T08:04:47;69.05;;;24.25;;
33926;SDS011;20485;50.992;5.550;2023-07-02T08:07:13;48.53;;;22.00;;
33926;SDS011;20485;50.992;5.550;2023-07-02T08:09:39;54.28;;;22.23;;
33926;SDS011;20485;50.992;5.550;2023-07-02T08:12:05;56.55;;;21.00;;
33926;SDS011;20485;50.992;5.550;2023-07-02T08:14:31;60.38;;;21.08;;
33926;SDS011;20485;50.992;5.550;2023-07-02T08:16:57;59.88;;;21.13;;
33926;SDS011;20485;50.992;5.550;2023-07-02T08:19:22;51.63;;;19.70;;
33926;SDS011;20485;50.992;5.550;2023-07-02T08:21:48;50.67;;;20.92;;
33926;SDS011;20485;50.992;5.550;2023-07-02T08:24:14;55.97;;;21.85;;
33926;SDS011;20485;50.992;5.550;2023-07-02T08:26:39;61.42;;;21.67;;
33926;SDS011;20485;50.992;5.550;2023-07-02T08:29:05;49.25;;;21.92;;
33926;SDS011;20485;50.992;5.550;2023-07-02T08:31:31;63.08;;;23.38;;
33926;SDS011;20485;50.992;5.550;2023-07-02T08:33:56;51.22;;;20.95;;
33926;SDS011;20485;50.992;5.550;2023-07-02T08:36:22;57.05;;;22.30;;
33926;SDS011;20485;50.992;5.550;2023-07-02T08:38:48;53.92;;;21.10;;
33926;SDS011;20485;50.992;5.550;2023-07-02T08:41:14;54.53;;;20.90;;
33926;SDS011;20485;50.992;5.550;2023-07-02T08:43:40;51.75;;;21.42;;
33926;SDS011;20485;50.992;5.550;2023-07-02T08:46:06;53.83;;;20.13;;
33926;SDS011;20485;50.992;5.550;2023-07-02T08:48:33;51.47;;;20.95;;
33926;SDS011;20485;50.992;5.550;2023-07-02T08:51:02;52.22;;;19.58;;
33926;SDS011;20485;50.992;5.550;2023-07-02T08:53:28;51.67;;;19.10;;
33926;SDS011;20485;50.992;5.550;2023-07-02T08:55:58;53.97;;;18.17;;
33926;SDS011;20485;50.992;5.550;2023-07-02T08:58:25;48.17;;;17.17;;
33926;SDS011;20485;50.992;5.550;2023-07-02T09:01:09;42.45;;;15.30;;
33926;SDS011;20485;50.992;5.550;2023-07-02T09:03:37;33.80;;;13.77;;
33926;SDS011;20485;50.992;5.550;2023-07-02T09:06:07;31.83;;;12.98;;
33926;SDS011;20485;50.992;5.550;2023-07-02T09:08:34;31.27;;;12.63;;
33926;SDS011;20485;50.992;5.550;2023-07-02T09:11:10;27.50;;;12.55;;
33926;SDS011;20485;50.992;5.550;2023-07-02T09:13:49;45.60;;;13.23;;
33926;SDS011;20485;50.992;5.550;2023-07-02T09:19:05;41.42;;;12.15;;
33926;SDS011;20485;50.992;5.550;2023-07-02T09:21:44;36.83;;;12.65;;
33926;SDS011;20485;50.992;5.550;2023-07-02T09:24:16;29.73;;;11.80;;
33926;SDS011;20485;50.992;5.550;2023-07-02T09:26:42;38.70;;;12.20;;
33926;SDS011;20485;50.992;5.550;2023-07-02T09:29:08;37.05;;;12.52;;
33926;SDS011;20485;50.992;5.550;2023-07-02T09:31:44;39.35;;;12.98;;
33926;SDS011;20485;50.992;5.550;2023-07-02T09:34:11;40.22;;;12.95;;
33926;SDS011;20485;50.992;5.550;2023-07-02T09:36:37;33.40;;;11.55;;
33926;SDS011;20485;50.992;5.550;2023-07-02T09:39:07;32.70;;;11.10;;
33926;SDS011;20485;50.992;5.550;2023-07-02T09:41:39;40.53;;;12.15;;
33926;SDS011;20485;50.992;5.550;2023-07-02T09:44:07;26.30;;;11.20;;
33926;SDS011;20485;50.992;5.550;2023-07-02T09:46:36;27.23;;;9.93;;
33926;SDS011;20485;50.992;5.550;2023-07-02T09:49:06;25.38;;;9.32;;
33926;SDS011;20485;50.992;5.550;2023-07-02T09:51:33;30.23;;;10.48;;
33926;SDS011;20485;50.992;5.550;2023-07-02T09:53:59;24.50;;;8.48;;
33926;SDS011;20485;50.992;5.550;2023-07-02T09:56:25;31.23;;;9.75;;
33926;SDS011;20485;50.992;5.550;2023-07-02T09:58:51;25.33;;;9.18;;
33926;SDS011;20485;50.992;5.550;2023-07-02T10:01:16;25.67;;;10.57;;
33926;SDS011;20485;50.992;5.550;2023-07-02T10:03:42;25.10;;;10.10;;
33926;SDS011;20485;50.992;5.550;2023-07-02T10:06:08;28.70;;;10.65;;
33926;SDS011;20485;50.992;5.550;2023-07-02T10:08:33;27.27;;;8.25;;
33926;SDS011;20485;50.992;5.550;2023-07-02T10:11:10;23.95;;;8.10;;
33926;SDS011;20485;50.992;5.550;2023-07-02T10:13:40;25.42;;;7.93;;
33926;SDS011;20485;50.992;5.550;2023-07-02T10:16:07;25.67;;;8.38;;
33926;SDS011;20485;50.992;5.550;2023-07-02T10:18:32;19.50;;;8.32;;
33926;SDS011;20485;50.992;5.550;2023-07-02T10:20:59;23.25;;;8.48;;
33926;SDS011;20485;50.992;5.550;2023-07-02T10:23:34;26.02;;;8.18;;
33926;SDS011;20485;50.992;5.550;2023-07-02T10:26:10;24.33;;;8.90;;
33926;SDS011;20485;50.992;5.550;2023-07-02T10:28:55;23.55;;;8.88;;
33926;SDS011;20485;50.992;5.550;2023-07-02T10:31:21;23.23;;;8.98;;
33926;SDS011;20485;50.992;5.550;2023-07-02T10:33:47;24.50;;;8.00;;
33926;SDS011;20485;50.992;5.550;2023-07-02T10:38:48;18.50;;;7.90;;
33926;SDS011;20485;50.992;5.550;2023-07-02T10:41:28;24.55;;;7.82;;
33926;SDS011;20485;50.992;5.550;2023-07-02T10:43:56;24.42;;;7.43;;
33926;SDS011;20485;50.992;5.550;2023-07-02T10:46:31;23.40;;;8.40;;
33926;SDS011;20485;50.992;5.550;2023-07-02T10:48:57;23.90;;;8.65;;
33926;SDS011;20485;50.992;5.550;2023-07-02T10:51:23;26.50;;;8.32;;
33926;SDS011;20485;50.992;5.550;2023-07-02T10:54:02;20.70;;;8.32;;
33926;SDS011;20485;50.992;5.550;2023-07-02T10:56:29;31.67;;;9.60;;
33926;SDS011;20485;50.992;5.550;2023-07-02T10:58:55;27.48;;;10.10;;
33926;SDS011;20485;50.992;5.550;2023-07-02T11:01:25;31.80;;;9.98;;
33926;SDS011;20485;50.992;5.550;2023-07-02T11:03:55;25.55;;;9.45;;
33926;SDS011;20485;50.992;5.550;2023-07-02T11:06:29;24.52;;;9.73;;
33926;SDS011;20485;50.992;5.550;2023-07-02T11:08:57;29.52;;;10.45;;
33926;SDS011;20485;50.992;5.550;2023-07-02T11:11:23;30.33;;;11.18;;
33926;SDS011;20485;50.992;5.550;2023-07-02T11:13:49;26.40;;;9.77;;
33926;SDS011;20485;50.992;5.550;2023-07-02T11:16:17;26.75;;;9.60;;
33926;SDS011;20485;50.992;5.550;2023-07-02T11:18:49;22.80;;;9.35;;
33926;SDS011;20485;50.992;5.550;2023-07-02T11:21:15;25.75;;;10.18;;
33926;SDS011;20485;50.992;5.550;2023-07-02T11:23:41;29.27;;;9.63;;
33926;SDS011;20485;50.992;5.550;2023-07-02T11:26:06;26.02;;;10.75;;
33926;SDS011;20485;50.992;5.550;2023-07-02T11:28:32;28.10;;;9.98;;
33926;SDS011;20485;50.992;5.550;2023-07-02T11:30:59;26.50;;;10.30;;
33926;SDS011;20485;50.992;5.550;2023-07-02T11:33:36;28.65;;;9.90;;
33926;SDS011;20485;50.992;5.550;2023-07-02T11:36:03;29.33;;;11.18;;
33926;SDS011;20485;50.992;5.550;2023-07-02T11:38:29;25.25;;;11.65;;
33926;SDS011;20485;50.992;5.550;2023-07-02T11:40:55;29.75;;;10.82;;
33926;SDS011;20485;50.992;5.550;2023-07-02T11:43:21;28.15;;;10.07;;
33926;SDS011;20485;50.992;5.550;2023-07-02T11:45:46;26.42;;;10.35;;
33926;SDS011;20485;50.992;5.550;2023-07-02T11:48:12;22.17;;;10.35;;
33926;SDS011;20485;50.992;5.550;2023-07-02T11:50:38;37.47;;;12.27;;
33926;SDS011;20485;50.992;5.550;2023-07-02T11:53:04;34.45;;;11.70;;
33926;SDS011;20485;50.992;5.550;2023-07-02T11:55:29;35.65;;;11.60;;
33926;SDS011;20485;50.992;5.550;2023-07-02T11:57:55;27.02;;;10.80;;
33926;SDS011;20485;50.992;5.550;2023-07-02T12:00:21;29.85;;;11.23;;
33926;SDS011;20485;50.992;5.550;2023-07-02T12:02:46;34.45;;;11.40;;
33926;SDS011;20485;50.992;5.550;2023-07-02T12:05:13;25.15;;;10.13;;
33926;SDS011;20485;50.992;5.550;2023-07-02T12:07:38;27.33;;;10.70;;
33926;SDS011;20485;50.992;5.550;2023-07-02T12:10:04;25.52;;;9.75;;
33926;SDS011;20485;50.992;5.550;2023-07-02T12:12:31;31.10;;;10.25;;
33926;SDS011;20485;50.992;5.550;2023-07-02T12:14:56;27.27;;;10.00;;
33926;SDS011;20485;50.992;5.550;2023-07-02T12:17:22;33.85;;;11.00;;
33926;SDS011;20485;50.992;5.550;2023-07-02T12:19:48;28.55;;;10.35;;
33926;SDS011;20485;50.992;5.550;2023-07-02T12:22:13;25.77;;;10.52;;
33926;SDS011;20485;50.992;5.550;2023-07-02T12:24:42;24.52;;;10.27;;
33926;SDS011;20485;50.992;5.550;2023-07-02T12:27:08;28.10;;;11.32;;
33926;SDS011;20485;50.992;5.550;2023-07-02T12:29:35;30.70;;;11.15;;
33926;SDS011;20485;50.992;5.550;2023-07-02T12:32:02;29.60;;;11.90;;
33926;SDS011;20485;50.992;5.550;2023-07-02T12:34:28;35.17;;;11.65;;
33926;SDS011;20485;50.992;5.550;2023-07-02T12:36:54;32.55;;;10.90;;
33926;SDS011;20485;50.992;5.550;2023-07-02T12:39:20;27.95;;;11.05;;
33926;SDS011;20485;50.992;5.550;2023-07-02T12:41:45;32.50;;;12.82;;
33926;SDS011;20485;50.992;5.550;2023-07-02T12:44:11;27.40;;;10.63;;
33926;SDS011;20485;50.992;5.550;2023-07-02T12:46:37;29.48;;;10.82;;
33926;SDS011;20485;50.992;5.550;2023-07-02T12:49:02;31.58;;;11.20;;
33926;SDS011;20485;50.992;5.550;2023-07-02T12:51:28;29.10;;;11.07;;
33926;SDS011;20485;50.992;5.550;2023-07-02T12:53:54;25.80;;;10.68;;
33926;SDS011;20485;50.992;5.550;2023-07-02T12:56:19;28.23;;;11.40;;
33926;SDS011;20485;50.992;5.550;2023-07-02T12:58:45;31.45;;;10.95;;
33926;SDS011;20485;50.992;5.550;2023-07-02T13:01:11;27.67;;;11.63;;
33926;SDS011;20485;50.992;5.550;2023-07-02T13:03:37;31.33;;;10.82;;
33926;SDS011;20485;50.992;5.550;2023-07-02T13:06:03;28.15;;;10.32;;
33926;SDS011;20485;50.992;5.550;2023-07-02T13:08:28;34.03;;;10.23;;
33926;SDS011;20485;50.992;5.550;2023-07-02T13:10:54;29.38;;;10.10;;
33926;SDS011;20485;50.992;5.550;2023-07-02T13:13:19;28.40;;;10.52;;
33926;SDS011;20485;50.992;5.550;2023-07-02T13:15:45;26.35;;;9.95;;
33926;SDS011;20485;50.992;5.550;2023-07-02T13:18:12;27.83;;;9.60;;
33926;SDS011;20485;50.992;5.550;2023-07-02T13:20:38;25.10;;;9.85;;
33926;SDS011;20485;50.992;5.550;2023-07-02T13:23:03;29.13;;;10.32;;
33926;SDS011;20485;50.992;5.550;2023-07-02T13:25:29;32.90;;;10.88;;
33926;SDS011;20485;50.992;5.550;2023-07-02T13:27:54;31.58;;;9.43;;
33926;SDS011;20485;50.992;5.550;2023-07-02T13:30:20;29.77;;;10.40;;
33926;SDS011;20485;50.992;5.550;2023-07-02T13:32:46;24.77;;;10.52;;
33926;SDS011;20485;50.992;5.550;2023-07-02T13:35:12;29.00;;;9.88;;
33926;SDS011;20485;50.992;5.550;2023-07-02T13:37:37;26.58;;;10.88;;
33926;SDS011;20485;50.992;5.550;2023-07-02T13:40:03;29.17;;;10.30;;
33926;SDS011;20485;50.992;5.550;2023-07-02T13:42:31;30.98;;;10.32;;
33926;SDS011;20485;50.992;5.550;2023-07-02T13:44:57;37.45;;;10.80;;
33926;SDS011;20485;50.992;5.550;2023-07-02T13:47:22;23.75;;;9.52;;
33926;SDS011;20485;50.992;5.550;2023-07-02T13:49:48;24.95;;;10.50;;
33926;SDS011;20485;50.992;5.550;2023-07-02T13:52:14;25.42;;;10.43;;
33926;SDS011;20485;50.992;5.550;2023-07-02T13:54:40;29.83;;;10.32;;
33926;SDS011;20485;50.992;5.550;2023-07-02T13:57:06;31.30;;;9.75;;
33926;SDS011;20485;50.992;5.550;2023-07-02T13:59:31;27.35;;;10.50;;
33926;SDS011;20485;50.992;5.550;2023-07-02T14:01:57;30.20;;;10.70;;
33926;SDS011;20485;50.992;5.550;2023-07-02T14:04:23;25.38;;;9.77;;
33926;SDS011;20485;50.992;5.550;2023-07-02T14:06:48;28.38;;;10.32;;
33926;SDS011;20485;50.992;5.550;2023-07-02T14:09:14;24.02;;;8.85;;
33926;SDS011;20485;50.992;5.550;2023-07-02T14:11:40;26.80;;;10.05;;
33926;SDS011;20485;50.992;5.550;2023-07-02T14:14:08;29.35;;;8.98;;
33926;SDS011;20485;50.992;5.550;2023-07-02T14:16:34;25.27;;;10.43;;
33926;SDS011;20485;50.992;5.550;2023-07-02T14:18:59;23.52;;;9.48;;
33926;SDS011;20485;50.992;5.550;2023-07-02T14:21:25;25.40;;;9.52;;
33926;SDS011;20485;50.992;5.550;2023-07-02T14:23:50;22.60;;;9.25;;
33926;SDS011;20485;50.992;5.550;2023-07-02T14:26:16;29.25;;;10.15;;
33926;SDS011;20485;50.992;5.550;2023-07-02T14:28:42;23.92;;;9.98;;